sensor_id;sensor_type;location;lat;lon;timestamp;temperature;humidity
22645;DHT22;11489;50.834;6.752;2023-04-24T00:02:24;11.10;89.00
22645;DHT22;11489;50.834;6.752;2023-04-24T00:04:51;11.10;89.10
22645;DHT22;11489;50.834;6.752;2023-04-24T00:07:16;11.10;89.00
22645;DHT22;11489;50.834;6.752;2023-04-24T00:09:45;11.20;88.90
22645;DHT22;11489;50.834;6.752;2023-04-24T00:12:11;11.20;88.60
22645;DHT22;11489;50.834;6.752;2023-04-24T00:14:37;11.20;88.70
22645;DHT22;11489;50.834;6.752;2023-04-24T00:17:03;11.20;88.70
22645;DHT22;11489;50.834;6.752;2023-04-24T00:19:29;11.20;88.70
22645;DHT22;11489;50.834;6.752;2023-04-24T00:21:54;11.20;88.70
22645;DHT22;11489;50.834;6.752;2023-04-24T00:24:21;11.20;88.70
22645;DHT22;11489;50.834;6.752;2023-04-24T00:26:46;11.20;88.80
22645;DHT22;11489;50.834;6.752;2023-04-24T00:29:12;11.20;88.80
22645;DHT22;11489;50.834;6.752;2023-04-24T00:31:38;11.20;88.70
22645;DHT22;11489;50.834;6.752;2023-04-24T00:34:04;11.20;88.60
22645;DHT22;11489;50.834;6.752;2023-04-24T00:36:30;11.20;88.60
22645;DHT22;11489;50.834;6.752;2023-04-24T00:38:56;11.20;88.50
22645;DHT22;11489;50.834;6.752;2023-04-24T00:41:23;11.20;88.40
22645;DHT22;11489;50.834;6.752;2023-04-24T00:43:50;11.20;88.40
22645;DHT22;11489;50.834;6.752;2023-04-24T00:46:16;11.20;88.40
22645;DHT22;11489;50.834;6.752;2023-04-24T00:48:43;11.20;88.20
22645;DHT22;11489;50.834;6.752;2023-04-24T00:51:09;11.30;88.20
22645;DHT22;11489;50.834;6.752;2023-04-24T00:53:35;11.20;88.10
22645;DHT22;11489;50.834;6.752;2023-04-24T00:56:01;11.20;88.20
22645;DHT22;11489;50.834;6.752;2023-04-24T00:58:27;11.30;88.20
22645;DHT22;11489;50.834;6.752;2023-04-24T01:00:54;11.20;88.00
22645;DHT22;11489;50.834;6.752;2023-04-24T01:03:22;11.20;87.80
22645;DHT22;11489;50.834;6.752;2023-04-24T01:05:50;11.20;87.70
22645;DHT22;11489;50.834;6.752;2023-04-24T01:08:16;11.20;87.60
22645;DHT22;11489;50.834;6.752;2023-04-24T01:10:44;11.20;87.50
22645;DHT22;11489;50.834;6.752;2023-04-24T01:13:10;11.20;87.40
22645;DHT22;11489;50.834;6.752;2023-04-24T01:15:36;11.20;87.30
22645;DHT22;11489;50.834;6.752;2023-04-24T01:18:02;11.20;86.90
22645;DHT22;11489;50.834;6.752;2023-04-24T01:20:28;11.10;86.80
22645;DHT22;11489;50.834;6.752;2023-04-24T01:22:55;11.10;86.50
22645;DHT22;11489;50.834;6.752;2023-04-24T01:25:22;11.10;86.50
22645;DHT22;11489;50.834;6.752;2023-04-24T01:27:48;11.10;86.60
22645;DHT22;11489;50.834;6.752;2023-04-24T01:30:14;11.10;86.50
22645;DHT22;11489;50.834;6.752;2023-04-24T01:32:40;11.00;86.30
22645;DHT22;11489;50.834;6.752;2023-04-24T01:35:07;11.00;86.90
22645;DHT22;11489;50.834;6.752;2023-04-24T01:37:33;10.90;86.30
22645;DHT22;11489;50.834;6.752;2023-04-24T01:39:59;10.90;86.20
22645;DHT22;11489;50.834;6.752;2023-04-24T01:42:25;10.90;86.20
22645;DHT22;11489;50.834;6.752;2023-04-24T01:44:50;10.80;86.00
22645;DHT22;11489;50.834;6.752;2023-04-24T01:47:17;10.80;85.90
22645;DHT22;11489;50.834;6.752;2023-04-24T01:49:42;10.70;85.80
22645;DHT22;11489;50.834;6.752;2023-04-24T01:52:08;10.60;85.70
22645;DHT22;11489;50.834;6.752;2023-04-24T01:54:34;10.50;85.60
22645;DHT22;11489;50.834;6.752;2023-04-24T01:57:00;10.40;85.60
22645;DHT22;11489;50.834;6.752;2023-04-24T01:59:28;10.40;85.80
22645;DHT22;11489;50.834;6.752;2023-04-24T02:01:54;10.30;85.80
22645;DHT22;11489;50.834;6.752;2023-04-24T02:04:19;10.20;85.70
22645;DHT22;11489;50.834;6.752;2023-04-24T02:06:45;10.10;85.60
22645;DHT22;11489;50.834;6.752;2023-04-24T02:09:11;10.00;85.40
22645;DHT22;11489;50.834;6.752;2023-04-24T02:11:37;9.90;85.40
22645;DHT22;11489;50.834;6.752;2023-04-24T02:14:02;9.80;85.50
22645;DHT22;11489;50.834;6.752;2023-04-24T02:16:28;9.80;85.80
22645;DHT22;11489;50.834;6.752;2023-04-24T02:18:57;9.60;85.90
22645;DHT22;11489;50.834;6.752;2023-04-24T02:21:23;9.60;86.10
22645;DHT22;11489;50.834;6.752;2023-04-24T02:23:49;9.50;86.10
22645;DHT22;11489;50.834;6.752;2023-04-24T02:26:14;9.50;86.20
22645;DHT22;11489;50.834;6.752;2023-04-24T02:28:40;9.40;86.30
22645;DHT22;11489;50.834;6.752;2023-04-24T02:31:06;9.40;86.40
22645;DHT22;11489;50.834;6.752;2023-04-24T02:33:32;9.30;86.40
22645;DHT22;11489;50.834;6.752;2023-04-24T02:35:58;9.30;86.60
22645;DHT22;11489;50.834;6.752;2023-04-24T02:38:23;9.20;86.70
22645;DHT22;11489;50.834;6.752;2023-04-24T02:40:49;9.20;86.90
22645;DHT22;11489;50.834;6.752;2023-04-24T02:43:15;9.20;87.20
22645;DHT22;11489;50.834;6.752;2023-04-24T02:45:40;9.10;87.40
22645;DHT22;11489;50.834;6.752;2023-04-24T02:48:06;9.10;87.70
22645;DHT22;11489;50.834;6.752;2023-04-24T02:50:31;9.10;87.80
22645;DHT22;11489;50.834;6.752;2023-04-24T02:52:59;9.10;88.00
22645;DHT22;11489;50.834;6.752;2023-04-24T02:55:24;9.10;88.00
22645;DHT22;11489;50.834;6.752;2023-04-24T02:57:50;9.20;88.20
22645;DHT22;11489;50.834;6.752;2023-04-24T03:00:16;9.20;88.10
22645;DHT22;11489;50.834;6.752;2023-04-24T03:02:42;9.20;88.00
22645;DHT22;11489;50.834;6.752;2023-04-24T03:05:07;9.20;87.80
22645;DHT22;11489;50.834;6.752;2023-04-24T03:07:34;9.20;87.60
22645;DHT22;11489;50.834;6.752;2023-04-24T03:10:00;9.20;87.60
22645;DHT22;11489;50.834;6.752;2023-04-24T03:12:25;9.20;87.40
22645;DHT22;11489;50.834;6.752;2023-04-24T03:14:51;9.20;87.20
22645;DHT22;11489;50.834;6.752;2023-04-24T03:17:17;9.20;87.00
22645;DHT22;11489;50.834;6.752;2023-04-24T03:19:42;9.10;86.80
22645;DHT22;11489;50.834;6.752;2023-04-24T03:22:08;9.00;86.80
22645;DHT22;11489;50.834;6.752;2023-04-24T03:24:34;8.90;86.80
22645;DHT22;11489;50.834;6.752;2023-04-24T03:27:00;8.90;87.00
22645;DHT22;11489;50.834;6.752;2023-04-24T03:29:26;8.90;87.00
22645;DHT22;11489;50.834;6.752;2023-04-24T03:31:51;8.80;87.10
22645;DHT22;11489;50.834;6.752;2023-04-24T03:34:17;8.70;87.20
22645;DHT22;11489;50.834;6.752;2023-04-24T03:36:42;8.70;87.30
22645;DHT22;11489;50.834;6.752;2023-04-24T03:39:08;8.70;87.30
22645;DHT22;11489;50.834;6.752;2023-04-24T03:41:34;8.70;87.30
22645;DHT22;11489;50.834;6.752;2023-04-24T03:43:59;8.60;87.40
22645;DHT22;11489;50.834;6.752;2023-04-24T03:46:25;8.60;87.60
22645;DHT22;11489;50.834;6.752;2023-04-24T03:48:51;8.60;87.70
22645;DHT22;11489;50.834;6.752;2023-04-24T03:51:17;8.50;87.90
22645;DHT22;11489;50.834;6.752;2023-04-24T03:53:42;8.50;88.10
22645;DHT22;11489;50.834;6.752;2023-04-24T03:56:08;8.50;88.10
22645;DHT22;11489;50.834;6.752;2023-04-24T03:58:34;8.50;88.20
22645;DHT22;11489;50.834;6.752;2023-04-24T04:00:59;8.50;88.50
22645;DHT22;11489;50.834;6.752;2023-04-24T04:03:25;8.50;88.70
22645;DHT22;11489;50.834;6.752;2023-04-24T04:05:51;8.60;88.80
22645;DHT22;11489;50.834;6.752;2023-04-24T04:08:17;8.60;88.90
22645;DHT22;11489;50.834;6.752;2023-04-24T04:10:42;8.60;89.00
22645;DHT22;11489;50.834;6.752;2023-04-24T04:13:08;8.70;89.10
22645;DHT22;11489;50.834;6.752;2023-04-24T04:15:34;8.70;89.80
22645;DHT22;11489;50.834;6.752;2023-04-24T04:18:03;8.80;89.10
22645;DHT22;11489;50.834;6.752;2023-04-24T04:20:28;8.80;89.10
22645;DHT22;11489;50.834;6.752;2023-04-24T04:22:54;8.80;89.10
22645;DHT22;11489;50.834;6.752;2023-04-24T04:25:20;8.80;89.10
22645;DHT22;11489;50.834;6.752;2023-04-24T04:27:46;8.90;89.20
22645;DHT22;11489;50.834;6.752;2023-04-24T04:30:14;8.90;89.10
22645;DHT22;11489;50.834;6.752;2023-04-24T04:32:42;9.00;89.20
22645;DHT22;11489;50.834;6.752;2023-04-24T04:35:08;9.00;89.00
22645;DHT22;11489;50.834;6.752;2023-04-24T04:37:34;9.00;89.00
22645;DHT22;11489;50.834;6.752;2023-04-24T04:40:01;9.00;88.90
22645;DHT22;11489;50.834;6.752;2023-04-24T04:42:31;9.10;88.70
22645;DHT22;11489;50.834;6.752;2023-04-24T04:44:58;9.10;88.70
22645;DHT22;11489;50.834;6.752;2023-04-24T04:47:24;9.10;88.80
22645;DHT22;11489;50.834;6.752;2023-04-24T04:49:50;9.10;88.80
22645;DHT22;11489;50.834;6.752;2023-04-24T04:52:19;9.10;88.80
22645;DHT22;11489;50.834;6.752;2023-04-24T04:54:44;9.10;88.80
22645;DHT22;11489;50.834;6.752;2023-04-24T04:57:11;9.10;88.70
22645;DHT22;11489;50.834;6.752;2023-04-24T04:59:37;9.10;88.80
22645;DHT22;11489;50.834;6.752;2023-04-24T05:02:03;9.10;88.90
22645;DHT22;11489;50.834;6.752;2023-04-24T05:04:29;9.10;89.00
22645;DHT22;11489;50.834;6.752;2023-04-24T05:06:55;9.10;88.90
22645;DHT22;11489;50.834;6.752;2023-04-24T05:09:21;9.10;89.00
22645;DHT22;11489;50.834;6.752;2023-04-24T05:11:47;9.20;89.10
22645;DHT22;11489;50.834;6.752;2023-04-24T05:14:13;9.20;89.20
22645;DHT22;11489;50.834;6.752;2023-04-24T05:16:41;9.20;89.20
22645;DHT22;11489;50.834;6.752;2023-04-24T05:19:06;9.20;89.20
22645;DHT22;11489;50.834;6.752;2023-04-24T05:21:32;9.30;89.10
22645;DHT22;11489;50.834;6.752;2023-04-24T05:23:58;9.30;89.10
22645;DHT22;11489;50.834;6.752;2023-04-24T05:26:23;9.30;89.00
22645;DHT22;11489;50.834;6.752;2023-04-24T05:28:49;9.30;89.00
22645;DHT22;11489;50.834;6.752;2023-04-24T05:31:15;9.40;89.10
22645;DHT22;11489;50.834;6.752;2023-04-24T05:33:43;9.40;89.10
22645;DHT22;11489;50.834;6.752;2023-04-24T05:36:09;9.40;89.00
22645;DHT22;11489;50.834;6.752;2023-04-24T05:38:34;9.40;89.10
22645;DHT22;11489;50.834;6.752;2023-04-24T05:41:00;9.50;89.20
22645;DHT22;11489;50.834;6.752;2023-04-24T05:43:26;9.50;89.10
22645;DHT22;11489;50.834;6.752;2023-04-24T05:45:52;9.50;89.00
22645;DHT22;11489;50.834;6.752;2023-04-24T05:48:19;9.50;88.90
22645;DHT22;11489;50.834;6.752;2023-04-24T05:50:52;9.50;88.80
22645;DHT22;11489;50.834;6.752;2023-04-24T05:53:18;9.60;88.60
22645;DHT22;11489;50.834;6.752;2023-04-24T05:55:44;9.60;89.00
22645;DHT22;11489;50.834;6.752;2023-04-24T05:58:11;9.60;89.00
22645;DHT22;11489;50.834;6.752;2023-04-24T06:00:37;9.60;89.00
22645;DHT22;11489;50.834;6.752;2023-04-24T06:03:08;9.60;89.10
22645;DHT22;11489;50.834;6.752;2023-04-24T06:05:34;9.70;89.00
22645;DHT22;11489;50.834;6.752;2023-04-24T06:08:00;9.70;89.00
22645;DHT22;11489;50.834;6.752;2023-04-24T06:10:26;9.70;88.90
22645;DHT22;11489;50.834;6.752;2023-04-24T06:12:51;9.70;88.80
22645;DHT22;11489;50.834;6.752;2023-04-24T06:15:17;9.70;88.70
22645;DHT22;11489;50.834;6.752;2023-04-24T06:17:43;9.80;88.70
22645;DHT22;11489;50.834;6.752;2023-04-24T06:20:09;9.70;88.70
22645;DHT22;11489;50.834;6.752;2023-04-24T06:22:36;9.80;88.70
22645;DHT22;11489;50.834;6.752;2023-04-24T06:25:02;9.80;88.50
22645;DHT22;11489;50.834;6.752;2023-04-24T06:27:28;9.70;88.10
22645;DHT22;11489;50.834;6.752;2023-04-24T06:29:53;9.70;88.10
22645;DHT22;11489;50.834;6.752;2023-04-24T06:32:24;9.70;88.00
22645;DHT22;11489;50.834;6.752;2023-04-24T06:34:53;9.60;87.90
22645;DHT22;11489;50.834;6.752;2023-04-24T06:37:22;9.60;87.80
22645;DHT22;11489;50.834;6.752;2023-04-24T06:39:48;9.50;87.80
22645;DHT22;11489;50.834;6.752;2023-04-24T06:42:17;9.40;88.00
22645;DHT22;11489;50.834;6.752;2023-04-24T06:44:42;9.30;88.20
22645;DHT22;11489;50.834;6.752;2023-04-24T06:47:09;9.30;88.50
22645;DHT22;11489;50.834;6.752;2023-04-24T06:49:38;9.20;88.60
22645;DHT22;11489;50.834;6.752;2023-04-24T06:52:04;9.20;88.90
22645;DHT22;11489;50.834;6.752;2023-04-24T06:54:31;9.20;89.20
22645;DHT22;11489;50.834;6.752;2023-04-24T06:56:56;9.10;89.40
22645;DHT22;11489;50.834;6.752;2023-04-24T06:59:26;9.10;89.60
22645;DHT22;11489;50.834;6.752;2023-04-24T07:01:55;9.10;89.70
22645;DHT22;11489;50.834;6.752;2023-04-24T07:04:21;9.10;89.80
22645;DHT22;11489;50.834;6.752;2023-04-24T07:06:47;9.00;89.80
22645;DHT22;11489;50.834;6.752;2023-04-24T07:09:14;9.00;89.90
22645;DHT22;11489;50.834;6.752;2023-04-24T07:11:41;9.00;90.00
22645;DHT22;11489;50.834;6.752;2023-04-24T07:14:07;8.90;90.00
22645;DHT22;11489;50.834;6.752;2023-04-24T07:16:34;8.90;90.10
22645;DHT22;11489;50.834;6.752;2023-04-24T07:19:00;8.90;90.20
22645;DHT22;11489;50.834;6.752;2023-04-24T07:21:25;8.90;90.20
22645;DHT22;11489;50.834;6.752;2023-04-24T07:23:55;8.90;90.20
22645;DHT22;11489;50.834;6.752;2023-04-24T07:26:24;8.80;90.20
22645;DHT22;11489;50.834;6.752;2023-04-24T07:28:50;8.80;90.20
22645;DHT22;11489;50.834;6.752;2023-04-24T07:31:22;8.80;90.30
22645;DHT22;11489;50.834;6.752;2023-04-24T07:33:48;8.70;90.30
22645;DHT22;11489;50.834;6.752;2023-04-24T07:36:14;8.60;90.20
22645;DHT22;11489;50.834;6.752;2023-04-24T07:38:47;8.60;90.20
22645;DHT22;11489;50.834;6.752;2023-04-24T07:41:14;8.50;90.40
22645;DHT22;11489;50.834;6.752;2023-04-24T07:43:40;8.50;90.40
22645;DHT22;11489;50.834;6.752;2023-04-24T07:46:09;8.40;90.40
22645;DHT22;11489;50.834;6.752;2023-04-24T07:48:35;8.40;90.40
22645;DHT22;11489;50.834;6.752;2023-04-24T07:51:00;8.30;90.40
22645;DHT22;11489;50.834;6.752;2023-04-24T07:53:26;8.20;90.50
22645;DHT22;11489;50.834;6.752;2023-04-24T07:55:52;8.20;90.50
22645;DHT22;11489;50.834;6.752;2023-04-24T07:58:22;8.10;90.60
22645;DHT22;11489;50.834;6.752;2023-04-24T08:00:48;8.10;90.70
22645;DHT22;11489;50.834;6.752;2023-04-24T08:03:14;8.00;90.80
22645;DHT22;11489;50.834;6.752;2023-04-24T08:05:40;8.00;90.90
22645;DHT22;11489;50.834;6.752;2023-04-24T08:08:07;8.00;91.00
22645;DHT22;11489;50.834;6.752;2023-04-24T08:10:36;8.00;91.00
22645;DHT22;11489;50.834;6.752;2023-04-24T08:13:04;8.00;91.10
22645;DHT22;11489;50.834;6.752;2023-04-24T08:15:30;7.90;91.00
22645;DHT22;11489;50.834;6.752;2023-04-24T08:17:57;7.90;91.10
22645;DHT22;11489;50.834;6.752;2023-04-24T08:20:25;7.90;91.10
22645;DHT22;11489;50.834;6.752;2023-04-24T08:22:51;7.80;91.20
22645;DHT22;11489;50.834;6.752;2023-04-24T08:25:16;7.80;91.20
22645;DHT22;11489;50.834;6.752;2023-04-24T08:27:46;7.80;91.30
22645;DHT22;11489;50.834;6.752;2023-04-24T08:30:12;7.70;91.30
22645;DHT22;11489;50.834;6.752;2023-04-24T08:32:38;7.70;91.20
22645;DHT22;11489;50.834;6.752;2023-04-24T08:35:03;7.70;91.20
22645;DHT22;11489;50.834;6.752;2023-04-24T08:37:29;7.60;91.20
22645;DHT22;11489;50.834;6.752;2023-04-24T08:39:55;7.50;91.30
22645;DHT22;11489;50.834;6.752;2023-04-24T08:42:21;7.50;91.40
22645;DHT22;11489;50.834;6.752;2023-04-24T08:44:48;7.50;91.50
22645;DHT22;11489;50.834;6.752;2023-04-24T08:47:15;7.40;91.60
22645;DHT22;11489;50.834;6.752;2023-04-24T08:49:41;7.40;91.60
22645;DHT22;11489;50.834;6.752;2023-04-24T08:52:07;7.40;91.70
22645;DHT22;11489;50.834;6.752;2023-04-24T08:54:36;7.40;91.80
22645;DHT22;11489;50.834;6.752;2023-04-24T08:57:03;7.40;91.90
22645;DHT22;11489;50.834;6.752;2023-04-24T08:59:31;7.40;92.00
22645;DHT22;11489;50.834;6.752;2023-04-24T09:01:57;7.30;92.10
22645;DHT22;11489;50.834;6.752;2023-04-24T09:04:26;7.40;92.30
22645;DHT22;11489;50.834;6.752;2023-04-24T09:06:58;7.40;92.30
22645;DHT22;11489;50.834;6.752;2023-04-24T09:09:24;7.40;92.40
22645;DHT22;11489;50.834;6.752;2023-04-24T09:11:51;7.50;92.40
22645;DHT22;11489;50.834;6.752;2023-04-24T09:14:20;7.50;92.50
22645;DHT22;11489;50.834;6.752;2023-04-24T09:16:46;7.50;92.60
22645;DHT22;11489;50.834;6.752;2023-04-24T09:19:12;7.60;92.70
22645;DHT22;11489;50.834;6.752;2023-04-24T09:21:38;7.60;92.80
22645;DHT22;11489;50.834;6.752;2023-04-24T09:24:08;7.60;92.80
22645;DHT22;11489;50.834;6.752;2023-04-24T09:26:39;7.70;92.90
22645;DHT22;11489;50.834;6.752;2023-04-24T09:29:07;7.70;92.90
22645;DHT22;11489;50.834;6.752;2023-04-24T09:31:36;7.80;92.90
22645;DHT22;11489;50.834;6.752;2023-04-24T09:34:04;7.80;93.00
22645;DHT22;11489;50.834;6.752;2023-04-24T09:36:36;7.90;93.00
22645;DHT22;11489;50.834;6.752;2023-04-24T09:39:08;8.00;93.10
22645;DHT22;11489;50.834;6.752;2023-04-24T09:41:53;8.00;93.10
22645;DHT22;11489;50.834;6.752;2023-04-24T09:44:22;8.10;93.20
22645;DHT22;11489;50.834;6.752;2023-04-24T09:46:53;8.20;93.20
22645;DHT22;11489;50.834;6.752;2023-04-24T09:51:49;8.30;93.00
22645;DHT22;11489;50.834;6.752;2023-04-24T09:54:16;8.30;93.00
22645;DHT22;11489;50.834;6.752;2023-04-24T09:56:47;8.40;92.90
22645;DHT22;11489;50.834;6.752;2023-04-24T09:59:14;8.40;92.80
22645;DHT22;11489;50.834;6.752;2023-04-24T10:01:41;8.40;92.80
22645;DHT22;11489;50.834;6.752;2023-04-24T10:04:17;8.40;92.90
22645;DHT22;11489;50.834;6.752;2023-04-24T10:06:44;8.50;93.10
22645;DHT22;11489;50.834;6.752;2023-04-24T10:09:10;8.60;93.40
22645;DHT22;11489;50.834;6.752;2023-04-24T10:11:41;8.60;93.60
22645;DHT22;11489;50.834;6.752;2023-04-24T10:14:10;8.80;94.00
22645;DHT22;11489;50.834;6.752;2023-04-24T10:16:39;8.90;94.20
22645;DHT22;11489;50.834;6.752;2023-04-24T10:19:06;9.10;94.40
22645;DHT22;11489;50.834;6.752;2023-04-24T10:21:32;9.30;94.30
22645;DHT22;11489;50.834;6.752;2023-04-24T10:23:59;9.40;94.10
22645;DHT22;11489;50.834;6.752;2023-04-24T10:26:29;9.50;94.10
22645;DHT22;11489;50.834;6.752;2023-04-24T10:28:57;9.70;94.00
22645;DHT22;11489;50.834;6.752;2023-04-24T10:31:24;9.80;93.60
22645;DHT22;11489;50.834;6.752;2023-04-24T10:33:51;9.90;93.40
22645;DHT22;11489;50.834;6.752;2023-04-24T10:36:21;10.00;93.10
22645;DHT22;11489;50.834;6.752;2023-04-24T10:38:48;10.00;92.90
22645;DHT22;11489;50.834;6.752;2023-04-24T10:41:17;10.10;92.90
22645;DHT22;11489;50.834;6.752;2023-04-24T10:46:33;10.30;93.40
22645;DHT22;11489;50.834;6.752;2023-04-24T10:48:58;10.40;93.70
22645;DHT22;11489;50.834;6.752;2023-04-24T10:51:43;10.60;93.30
22645;DHT22;11489;50.834;6.752;2023-04-24T10:56:48;10.80;92.40
22645;DHT22;11489;50.834;6.752;2023-04-24T10:59:24;10.80;92.20
22645;DHT22;11489;50.834;6.752;2023-04-24T11:01:54;10.80;91.90
22645;DHT22;11489;50.834;6.752;2023-04-24T11:04:31;10.80;91.60
22645;DHT22;11489;50.834;6.752;2023-04-24T11:06:57;10.60;91.30
22645;DHT22;11489;50.834;6.752;2023-04-24T11:09:26;10.50;91.30
22645;DHT22;11489;50.834;6.752;2023-04-24T11:12:06;10.40;91.30
22645;DHT22;11489;50.834;6.752;2023-04-24T11:15:00;10.20;91.40
22645;DHT22;11489;50.834;6.752;2023-04-24T11:17:35;10.10;91.60
22645;DHT22;11489;50.834;6.752;2023-04-24T11:20:03;10.10;91.90
22645;DHT22;11489;50.834;6.752;2023-04-24T11:22:34;10.10;92.80
22645;DHT22;11489;50.834;6.752;2023-04-24T11:25:03;10.10;92.60
22645;DHT22;11489;50.834;6.752;2023-04-24T11:27:40;10.10;92.80
22645;DHT22;11489;50.834;6.752;2023-04-24T11:30:06;10.10;92.50
22645;DHT22;11489;50.834;6.752;2023-04-24T11:35:00;10.10;92.80
22645;DHT22;11489;50.834;6.752;2023-04-24T11:37:29;10.20;92.70
22645;DHT22;11489;50.834;6.752;2023-04-24T11:39:56;10.30;92.80
22645;DHT22;11489;50.834;6.752;2023-04-24T11:42:23;10.40;93.10
22645;DHT22;11489;50.834;6.752;2023-04-24T11:44:50;10.50;93.20
22645;DHT22;11489;50.834;6.752;2023-04-24T11:47:17;10.60;93.30
22645;DHT22;11489;50.834;6.752;2023-04-24T11:49:45;10.70;93.60
22645;DHT22;11489;50.834;6.752;2023-04-24T11:52:15;10.90;93.90
22645;DHT22;11489;50.834;6.752;2023-04-24T11:54:50;11.10;93.70
22645;DHT22;11489;50.834;6.752;2023-04-24T11:57:19;11.20;93.00
22645;DHT22;11489;50.834;6.752;2023-04-24T11:59:45;11.40;92.80
22645;DHT22;11489;50.834;6.752;2023-04-24T12:02:25;11.50;93.00
22645;DHT22;11489;50.834;6.752;2023-04-24T12:04:53;11.60;92.70
22645;DHT22;11489;50.834;6.752;2023-04-24T12:07:19;11.80;93.20
22645;DHT22;11489;50.834;6.752;2023-04-24T12:09:47;11.90;93.00
22645;DHT22;11489;50.834;6.752;2023-04-24T12:12:20;12.00;92.60
22645;DHT22;11489;50.834;6.752;2023-04-24T12:14:52;12.00;91.90
22645;DHT22;11489;50.834;6.752;2023-04-24T12:17:27;12.00;91.40
22645;DHT22;11489;50.834;6.752;2023-04-24T12:20:03;12.00;91.30
22645;DHT22;11489;50.834;6.752;2023-04-24T12:22:51;12.00;91.30
22645;DHT22;11489;50.834;6.752;2023-04-24T12:25:21;11.90;90.80
22645;DHT22;11489;50.834;6.752;2023-04-24T12:30:20;12.00;92.10
22645;DHT22;11489;50.834;6.752;2023-04-24T12:32:48;12.00;92.60
22645;DHT22;11489;50.834;6.752;2023-04-24T12:35:24;12.20;92.50
22645;DHT22;11489;50.834;6.752;2023-04-24T12:37:51;12.30;91.70
22645;DHT22;11489;50.834;6.752;2023-04-24T12:40:18;12.50;92.90
22645;DHT22;11489;50.834;6.752;2023-04-24T12:42:50;12.70;93.40
22645;DHT22;11489;50.834;6.752;2023-04-24T12:45:19;12.90;93.30
22645;DHT22;11489;50.834;6.752;2023-04-24T12:47:46;13.10;93.10
22645;DHT22;11489;50.834;6.752;2023-04-24T12:50:14;13.30;92.60
22645;DHT22;11489;50.834;6.752;2023-04-24T12:52:41;13.50;92.20
22645;DHT22;11489;50.834;6.752;2023-04-24T12:55:07;13.60;91.60
22645;DHT22;11489;50.834;6.752;2023-04-24T12:57:35;13.70;91.20
22645;DHT22;11489;50.834;6.752;2023-04-24T13:00:01;13.70;91.00
22645;DHT22;11489;50.834;6.752;2023-04-24T13:02:28;13.70;91.10
22645;DHT22;11489;50.834;6.752;2023-04-24T13:04:55;13.70;91.00
22645;DHT22;11489;50.834;6.752;2023-04-24T13:07:21;13.70;90.80
22645;DHT22;11489;50.834;6.752;2023-04-24T13:09:49;13.80;90.60
22645;DHT22;11489;50.834;6.752;2023-04-24T13:12:18;13.80;90.60
22645;DHT22;11489;50.834;6.752;2023-04-24T13:14:44;13.70;90.00
22645;DHT22;11489;50.834;6.752;2023-04-24T13:17:09;13.70;89.80
22645;DHT22;11489;50.834;6.752;2023-04-24T13:19:38;13.60;89.10
22645;DHT22;11489;50.834;6.752;2023-04-24T13:22:04;13.50;89.40
22645;DHT22;11489;50.834;6.752;2023-04-24T13:24:31;13.40;90.00
22645;DHT22;11489;50.834;6.752;2023-04-24T13:26:57;13.40;90.50
22645;DHT22;11489;50.834;6.752;2023-04-24T13:29:23;13.40;90.80
22645;DHT22;11489;50.834;6.752;2023-04-24T13:31:52;13.50;90.80
22645;DHT22;11489;50.834;6.752;2023-04-24T13:34:25;13.50;90.20
22645;DHT22;11489;50.834;6.752;2023-04-24T13:36:56;13.50;90.20
22645;DHT22;11489;50.834;6.752;2023-04-24T13:39:23;13.50;88.60
22645;DHT22;11489;50.834;6.752;2023-04-24T13:41:48;13.40;89.90
22645;DHT22;11489;50.834;6.752;2023-04-24T13:44:16;13.30;89.00
22645;DHT22;11489;50.834;6.752;2023-04-24T13:46:42;13.30;89.00
22645;DHT22;11489;50.834;6.752;2023-04-24T13:49:10;13.20;88.90
22645;DHT22;11489;50.834;6.752;2023-04-24T13:51:35;13.10;88.80
22645;DHT22;11489;50.834;6.752;2023-04-24T13:54:01;13.00;89.20
22645;DHT22;11489;50.834;6.752;2023-04-24T13:56:27;13.00;89.30
22645;DHT22;11489;50.834;6.752;2023-04-24T13:58:52;13.00;90.00
22645;DHT22;11489;50.834;6.752;2023-04-24T14:01:20;12.90;90.30
22645;DHT22;11489;50.834;6.752;2023-04-24T14:03:49;13.00;90.20
22645;DHT22;11489;50.834;6.752;2023-04-24T14:06:15;13.00;90.20
22645;DHT22;11489;50.834;6.752;2023-04-24T14:08:41;13.10;90.30
22645;DHT22;11489;50.834;6.752;2023-04-24T14:11:07;13.20;90.40
22645;DHT22;11489;50.834;6.752;2023-04-24T14:13:32;13.30;90.60
22645;DHT22;11489;50.834;6.752;2023-04-24T14:15:58;13.50;91.10
22645;DHT22;11489;50.834;6.752;2023-04-24T14:18:24;13.70;91.00
22645;DHT22;11489;50.834;6.752;2023-04-24T14:20:49;13.80;90.50
22645;DHT22;11489;50.834;6.752;2023-04-24T14:23:15;14.00;89.50
22645;DHT22;11489;50.834;6.752;2023-04-24T14:25:41;14.10;89.30
22645;DHT22;11489;50.834;6.752;2023-04-24T14:28:06;14.20;88.90
22645;DHT22;11489;50.834;6.752;2023-04-24T14:30:32;14.20;87.70
22645;DHT22;11489;50.834;6.752;2023-04-24T14:32:58;14.30;87.60
22645;DHT22;11489;50.834;6.752;2023-04-24T14:35:24;14.30;86.90
22645;DHT22;11489;50.834;6.752;2023-04-24T14:37:49;14.40;86.50
22645;DHT22;11489;50.834;6.752;2023-04-24T14:40:15;14.40;87.50
22645;DHT22;11489;50.834;6.752;2023-04-24T14:42:41;14.50;88.40
22645;DHT22;11489;50.834;6.752;2023-04-24T14:45:07;14.70;89.00
22645;DHT22;11489;50.834;6.752;2023-04-24T14:47:33;14.90;89.00
22645;DHT22;11489;50.834;6.752;2023-04-24T14:49:59;15.10;87.50
22645;DHT22;11489;50.834;6.752;2023-04-24T14:52:25;15.30;87.40
22645;DHT22;11489;50.834;6.752;2023-04-24T14:54:50;15.30;85.40
22645;DHT22;11489;50.834;6.752;2023-04-24T14:57:16;15.30;84.60
22645;DHT22;11489;50.834;6.752;2023-04-24T14:59:42;15.30;85.20
22645;DHT22;11489;50.834;6.752;2023-04-24T15:02:07;15.30;85.70
22645;DHT22;11489;50.834;6.752;2023-04-24T15:04:33;15.30;85.60
22645;DHT22;11489;50.834;6.752;2023-04-24T15:06:59;15.40;85.50
22645;DHT22;11489;50.834;6.752;2023-04-24T15:09:25;15.50;85.80
22645;DHT22;11489;50.834;6.752;2023-04-24T15:11:51;15.60;85.40
22645;DHT22;11489;50.834;6.752;2023-04-24T15:14:18;15.80;85.00
22645;DHT22;11489;50.834;6.752;2023-04-24T15:16:44;15.90;85.00
22645;DHT22;11489;50.834;6.752;2023-04-24T15:19:10;16.00;83.30
22645;DHT22;11489;50.834;6.752;2023-04-24T15:21:37;16.00;82.10
22645;DHT22;11489;50.834;6.752;2023-04-24T15:24:06;16.00;80.60
22645;DHT22;11489;50.834;6.752;2023-04-24T15:26:32;15.90;80.10
22645;DHT22;11489;50.834;6.752;2023-04-24T15:28:57;15.80;80.10
22645;DHT22;11489;50.834;6.752;2023-04-24T15:31:23;15.70;80.00
22645;DHT22;11489;50.834;6.752;2023-04-24T15:33:49;15.50;79.50
22645;DHT22;11489;50.834;6.752;2023-04-24T15:36:16;15.40;80.70
22645;DHT22;11489;50.834;6.752;2023-04-24T15:38:49;15.30;81.00
22645;DHT22;11489;50.834;6.752;2023-04-24T15:41:14;15.20;80.80
22645;DHT22;11489;50.834;6.752;2023-04-24T15:43:40;15.00;81.00
22645;DHT22;11489;50.834;6.752;2023-04-24T15:46:07;14.90;80.00
22645;DHT22;11489;50.834;6.752;2023-04-24T15:48:35;14.80;80.10
22645;DHT22;11489;50.834;6.752;2023-04-24T15:51:01;14.70;79.10
22645;DHT22;11489;50.834;6.752;2023-04-24T15:53:27;14.50;80.00